Time;durP1;ratioP1;P1;durP2;ratioP2;P2;SDS_P1;SDS_P2;PMS_P1;PMS_P2;Temp;Humidity;BMP_temperature;BMP_pressure;BME280_temperature;BME280_humidity;BME280_pressure;Samples;Min_cycle;Max_cycle;Signal;HPM_P1;HPM_P2
2022/07/16 00:02:28;;;;;;;2.50;1.32;;;;;;;15.02;76.77;98513.91;1697395;82;28151;-84
2022/07/16 00:04:56;;;;;;;3.98;1.87;;;;;;;15.00;77.16;98516.34;1722173;82;28159;-84
2022/07/16 00:07:26;;;;;;;4.65;1.67;;;;;;;14.96;77.37;98515.75;1725198;82;28056;-84
2022/07/16 00:09:50;;;;;;;3.83;1.62;;;;;;;14.95;77.72;98512.77;1723983;82;28242;-85
2022/07/16 00:12:24;;;;;;;2.65;1.62;;;;;;;14.95;78.16;98513.24;1718770;82;28059;-84
2022/07/16 00:14:52;;;;;;;4.08;2.00;;;;;;;14.95;78.68;98517.20;1721274;82;28128;-84
2022/07/16 00:17:20;;;;;;;4.55;2.05;;;;;;;14.95;79.22;98515.88;1722555;82;28093;-84
2022/07/16 00:19:46;;;;;;;4.00;1.82;;;;;;;14.96;79.74;98514.44;1725811;82;28178;-84
2022/07/16 00:22:12;;;;;;;4.87;2.30;;;;;;;14.98;80.26;98510.36;1723143;82;28095;-84
2022/07/16 00:24:42;;;;;;;3.80;2.92;;;;;;;15.02;80.82;98508.64;1713371;82;28067;-84
2022/07/16 00:27:08;;;;;;;4.70;2.20;;;;;;;15.06;81.39;98511.35;1718562;82;28134;-85
2022/07/16 00:29:37;;;;;;;7.33;2.40;;;;;;;15.08;81.98;98506.80;1720033;82;28104;-85
2022/07/16 00:32:03;;;;;;;4.00;1.65;;;;;;;15.08;82.41;98496.25;1723542;82;28028;-86
2022/07/16 00:34:29;;;;;;;4.25;2.42;;;;;;;15.10;82.83;98500.08;1722428;82;28190;-86
2022/07/16 00:36:55;;;;;;;4.95;1.98;;;;;;;15.10;83.27;98500.56;1729663;82;28132;-86
2022/07/16 00:39:21;;;;;;;4.80;2.33;;;;;;;15.06;83.59;98494.22;1718096;82;46888;-86
2022/07/16 00:41:50;;;;;;;5.97;1.90;;;;;;;15.03;83.89;98492.34;1722548;82;28151;-86
2022/07/16 00:44:19;;;;;;;6.92;3.00;;;;;;;15.02;84.21;98489.35;1727714;82;28179;-86
2022/07/16 00:46:51;;;;;;;5.45;2.95;;;;;;;15.01;84.57;98490.31;1719329;82;28008;-86
2022/07/16 00:49:16;;;;;;;7.37;2.92;;;;;;;14.99;84.89;98499.70;1726126;82;28122;-86
2022/07/16 00:51:45;;;;;;;6.22;2.58;;;;;;;14.97;85.21;98494.19;1723126;82;28073;-86
2022/07/16 00:54:12;;;;;;;9.35;2.90;;;;;;;14.93;85.49;98502.02;1728679;82;28089;-86
2022/07/16 00:56:39;;;;;;;5.55;2.62;;;;;;;14.88;85.76;98498.47;1725055;81;28095;-86
2022/07/16 00:59:06;;;;;;;8.05;3.20;;;;;;;14.86;86.07;98498.23;1716111;82;27999;-85
2022/07/16 01:01:32;;;;;;;6.62;3.15;;;;;;;14.82;86.31;98499.47;1697872;83;28059;-86
2022/07/16 01:03:59;;;;;;;4.70;2.75;;;;;;;14.78;86.57;98497.59;1706089;82;28129;-85
2022/07/16 01:06:32;;;;;;;9.23;2.77;;;;;;;14.76;86.82;98497.36;1703573;82;28078;-85
2022/07/16 01:09:00;;;;;;;4.37;2.90;;;;;;;14.71;87.13;98497.77;1707456;82;28188;-85
2022/07/16 01:11:31;;;;;;;5.22;2.60;;;;;;;14.64;87.37;98496.12;1714076;82;28006;-85
2022/07/16 01:14:05;;;;;;;;;;;;;;;14.59;87.68;98493.05;1710753;82;28145;-85
2022/07/16 01:16:32;;;;;;;7.05;2.60;;;;;;;14.55;88.00;98496.92;1699123;83;20202;-85
2022/07/16 01:18:58;;;;;;;7.15;2.50;;;;;;;14.50;88.27;98494.33;1703987;82;28100;-85
2022/07/16 01:21:24;;;;;;;6.70;2.42;;;;;;;14.45;88.57;98493.41;1699840;82;28029;-85
2022/07/16 01:23:50;;;;;;;5.90;2.50;;;;;;;14.41;88.92;98492.45;1709561;82;28062;-85
2022/07/16 01:26:17;;;;;;;5.15;2.15;;;;;;;14.35;89.16;98492.93;1698182;83;28169;-84
2022/07/16 01:28:43;;;;;;;6.35;2.50;;;;;;;14.27;89.34;98487.02;1707704;82;28074;-84
2022/07/16 01:31:10;;;;;;;6.80;2.35;;;;;;;14.24;89.67;98484.63;1706402;82;28127;-84
2022/07/16 01:33:40;;;;;;;7.28;2.50;;;;;;;14.22;89.94;98489.20;1706055;82;27999;-85
2022/07/16 01:36:09;;;;;;;4.47;2.72;;;;;;;14.18;90.18;98483.84;1709328;82;28106;-85
2022/07/16 01:38:45;;;;;;;5.80;2.87;;;;;;;14.15;90.49;98489.35;1707066;82;27991;-86
2022/07/16 01:41:13;;;;;;;7.15;3.52;;;;;;;14.14;90.83;98484.56;1703649;82;28148;-85
2022/07/16 01:43:42;;;;;;;4.53;2.62;;;;;;;14.11;91.10;98485.31;1710525;82;28120;-85
2022/07/16 01:46:08;;;;;;;8.55;2.52;;;;;;;14.07;91.30;98483.39;1698775;82;28151;-86
2022/07/16 01:48:37;;;;;;;5.53;2.75;;;;;;;14.01;91.52;98476.52;1705989;82;28112;-86
2022/07/16 01:51:10;;;;;;;4.58;2.60;;;;;;;14.02;91.80;98484.27;1702927;82;28189;-85
2022/07/16 01:53:36;;;;;;;5.08;2.42;;;;;;;13.99;92.09;98486.33;1702500;82;28010;-86
2022/07/16 01:56:03;;;;;;;8.35;2.62;;;;;;;13.97;92.34;98481.66;1705280;82;28208;-86
2022/07/16 01:58:29;;;;;;;5.00;2.65;;;;;;;13.94;92.57;98477.98;1705608;80;28086;-86
2022/07/16 02:00:56;;;;;;;5.90;3.35;;;;;;;13.91;92.73;98480.37;1703819;82;43111;-86
2022/07/16 02:03:23;;;;;;;3.10;2.08;;;;;;;13.90;92.90;98475.26;1704924;82;28055;-86
2022/07/16 02:05:49;;;;;;;5.67;2.05;;;;;;;13.90;93.10;98472.62;1706954;82;28068;-86
2022/07/16 02:08:17;;;;;;;5.90;2.62;;;;;;;13.92;93.32;98472.84;1711674;82;28097;-86
2022/07/16 02:10:49;;;;;;;5.42;2.58;;;;;;;13.91;93.54;98470.36;1702619;82;28177;-86
2022/07/16 02:13:18;;;;;;;5.08;2.85;;;;;;;13.91;93.68;98471.16;1701755;82;28109;-86
2022/07/16 02:15:57;;;;;;;4.12;2.62;;;;;;;13.90;93.86;98468.68;1700270;82;28071;-86
2022/07/16 02:18:36;;;;;;;5.78;2.65;;;;;;;13.83;94.00;98465.23;1709793;82;28019;-86
2022/07/16 02:21:20;;;;;;;7.70;3.37;;;;;;;13.82;94.20;98467.51;1702782;82;28109;-86
2022/07/16 02:23:46;;;;;;;4.17;3.10;;;;;;;13.79;94.36;98461.67;1698474;82;28109;-86
2022/07/16 02:26:14;;;;;;;5.85;2.72;;;;;;;13.72;94.40;98461.34;1704379;82;28242;-86
2022/07/16 02:28:40;;;;;;;6.33;3.22;;;;;;;13.65;94.41;98460.64;1710197;82;28195;-86
2022/07/16 02:31:07;;;;;;;5.62;2.92;;;;;;;13.58;94.47;98460.30;1706583;82;28077;-86
2022/07/16 02:33:42;;;;;;;4.75;2.90;;;;;;;13.52;94.55;98459.52;1706489;82;28486;-86
2022/07/16 02:36:08;;;;;;;10.70;3.17;;;;;;;13.47;94.67;98452.95;1704565;82;28069;-86
2022/07/16 02:38:34;;;;;;;7.80;2.80;;;;;;;13.38;94.80;98454.52;1697374;82;28002;-86
2022/07/16 02:41:11;;;;;;;5.60;2.70;;;;;;;13.32;94.93;98451.07;1703920;82;28185;-86
2022/07/16 02:43:39;;;;;;;6.05;3.15;;;;;;;13.25;95.09;98453.38;1705138;82;28070;-86
2022/07/16 02:46:08;;;;;;;6.42;2.37;;;;;;;13.20;95.28;98441.06;1708267;81;28109;-85
2022/07/16 02:48:34;;;;;;;3.92;2.37;;;;;;;13.17;95.47;98441.33;1708658;82;28078;-85
2022/07/16 02:51:01;;;;;;;6.58;3.22;;;;;;;13.11;95.59;98433.89;1713165;82;28066;-85
2022/07/16 02:53:27;;;;;;;5.15;2.47;;;;;;;13.10;95.77;98435.32;1708313;82;28117;-85
2022/07/16 02:55:53;;;;;;;4.92;2.50;;;;;;;13.08;96.05;98429.38;1703673;82;28109;-85
2022/07/16 02:58:21;;;;;;;4.60;2.30;;;;;;;13.09;96.35;98437.11;1700845;81;28091;-85
2022/07/16 03:00:49;;;;;;;;;;;;;;;13.12;96.64;98440.02;1711667;82;28121;-85
2022/07/16 03:03:15;;;;;;;;;;;;;;;13.12;96.92;98437.39;1710254;82;25991;-84
2022/07/16 03:05:41;;;;;;;;;;;;;;;13.10;97.13;98437.47;1709139;81;24255;-84
2022/07/16 03:08:07;;;;;;;;;;;;;;;13.08;97.33;98436.78;1716944;82;20796;-84
2022/07/16 03:10:33;;;;;;;;;;;;;;;13.00;97.55;98431.29;1711087;82;20233;-85
2022/07/16 03:13:06;;;;;;;;;;;;;;;13.04;97.70;98442.41;1706215;82;20234;-84
2022/07/16 03:15:38;;;;;;;;;;;;;;;12.97;97.85;98444.20;1715597;82;27000;-84
2022/07/16 03:18:05;;;;;;;;;;;;;;;12.94;98.04;98448.84;1720620;82;24621;-84
2022/07/16 03:20:31;;;;;;;;;;;;;;;12.93;98.28;98457.67;1714618;82;20473;-84
2022/07/16 03:22:59;;;;;;;;;;;;;;;12.89;98.48;98462.34;1713055;82;20485;-84
2022/07/16 03:25:31;;;;;;;;;;;;;;;12.88;98.67;98460.67;1714159;82;22035;-84
2022/07/16 03:27:57;;;;;;;;;;;;;;;12.87;98.92;98461.63;1717694;82;26225;-83
2022/07/16 03:30:23;;;;;;;;;;;;;;;12.89;99.13;98457.09;1720677;82;20313;-84
2022/07/16 03:32:49;;;;;;;;;;;;;;;12.90;99.34;98449.58;1714612;82;20261;-86
2022/07/16 03:35:15;;;;;;;;;;;;;;;12.94;99.64;98462.82;1705639;82;20828;-86
2022/07/16 03:40:33;;;;;;;;;;;;;;;13.02;100.00;98467.48;1714012;82;26134;-85
2022/07/16 03:42:59;;;;;;;;;;;;;;;13.10;100.00;98463.75;1715026;82;24411;-85
2022/07/16 03:45:25;;;;;;;;;;;;;;;13.20;100.00;98464.71;1710185;82;20246;-86
2022/07/16 03:47:51;;;;;;;;;;;;;;;13.31;100.00;98467.83;1715867;82;24532;-85
2022/07/16 03:50:19;;;;;;;;;;;;;;;13.48;100.00;98468.59;1710915;82;20199;-86
2022/07/16 03:52:45;;;;;;;;;;;;;;;13.64;100.00;98463.75;1712080;82;21170;-86
2022/07/16 03:55:11;;;;;;;;;;;;;;;13.82;100.00;98454.36;1715214;82;20876;-85
2022/07/16 03:57:37;;;;;;;;;;;;;;;14.00;100.00;98450.69;1707519;82;20504;-86
2022/07/16 04:00:03;;;;;;;;;;;;;;;14.13;100.00;98447.36;1722074;80;24700;-85
2022/07/16 04:02:31;;;;;;;;;;;;;;;14.25;100.00;98449.45;1718190;82;20204;-85
2022/07/16 04:04:58;;;;;;;;;;;;;;;14.35;100.00;98454.76;1711263;81;26590;-85
2022/07/16 04:07:25;;;;;;;;;;;;;;;14.48;100.00;98451.00;1713298;82;24393;-86
2022/07/16 04:09:51;;;;;;;;;;;;;;;14.67;100.00;98449.43;1715574;82;20793;-86
2022/07/16 04:12:17;;;;;;;;;;;;;;;14.81;100.00;98451.21;1728526;81;24456;-85
2022/07/16 04:14:43;;;;;;;;;;;;;;;15.00;100.00;98453.09;1679533;82;22085;-84
2022/07/16 04:17:10;;;;;;;;;;;;;;;15.14;100.00;98454.02;1703428;82;21052;-84
2022/07/16 04:19:36;;;;;;;;;;;;;;;15.32;100.00;98450.25;1715724;82;24591;-84
2022/07/16 04:22:02;;;;;;;;;;;;;;;15.56;100.00;98449.39;1712240;82;20265;-84
2022/07/16 04:24:28;;;;;;;;;;;;;;;15.74;100.00;98458.30;1716133;82;25159;-84
2022/07/16 04:26:54;;;;;;;;;;;;;;;15.90;100.00;98451.13;1718325;82;20345;-85
2022/07/16 04:29:21;;;;;;;;;;;;;;;16.11;100.00;98451.80;1705198;82;20712;-84
2022/07/16 04:31:49;;;;;;;;;;;;;;;16.25;100.00;98454.50;1713370;82;24494;-84
2022/07/16 04:34:14;;;;;;;;;;;;;;;16.38;100.00;98452.85;1687598;83;20664;-85
2022/07/16 04:36:40;;;;;;;;;;;;;;;16.54;100.00;98457.05;1710826;82;20276;-85
2022/07/16 04:39:06;;;;;;;;;;;;;;;16.59;100.00;98452.19;1712617;82;20891;-85
2022/07/16 04:41:32;;;;;;;;;;;;;;;16.59;99.81;98455.67;1713858;82;26030;-84
2022/07/16 04:43:58;;;;;;;;;;;;;;;16.66;99.43;98459.89;1703542;82;24473;-85
2022/07/16 04:46:30;;;;;;;;;;;;;;;16.65;98.91;98459.55;1710381;82;20249;-85
2022/07/16 04:48:57;;;;;;;;;;;;;;;16.61;98.34;98459.02;1705559;82;24526;-84
2022/07/16 04:51:29;;;;;;;;;;;;;;;16.64;97.91;98456.07;1711715;82;21988;-85
2022/07/16 04:53:54;;;;;;;;;;;;;;;16.64;97.46;98454.75;1712497;82;26324;-85
2022/07/16 04:56:20;;;;;;;;;;;;;;;16.63;97.02;98456.23;1712446;82;24494;-84
2022/07/16 04:58:46;;;;;;;;;;;;;;;16.64;96.74;98456.55;1718879;82;20514;-84
2022/07/16 05:01:12;;;;;;;;;;;;;;;16.64;96.42;98457.39;1701817;83;20347;-85
2022/07/16 05:03:38;;;;;;;;;;;;;;;16.66;96.12;98459.89;1702337;83;20309;-84
2022/07/16 05:06:04;;;;;;;;;;;;;;;16.68;95.93;98456.15;1716513;81;21008;-84
2022/07/16 05:08:30;;;;;;;;;;;;;;;16.72;95.80;98456.68;1713488;82;20823;-83
2022/07/16 05:10:56;;;;;;;;;;;;;;;16.70;95.58;98448.89;1725253;82;20576;-84
2022/07/16 05:13:22;;;;;;;;;;;;;;;16.68;95.24;98455.31;1716301;82;20820;-85
2022/07/16 05:15:53;;;;;;;;;;;;;;;16.66;94.99;98448.84;1701926;83;22066;-86
2022/07/16 05:18:26;;;;;;;;;;;;;;;16.66;94.77;98447.52;1701731;83;26768;-86
2022/07/16 05:20:52;;;;;;;;;;;;;;;16.68;94.59;98447.38;1701286;82;24397;-85
2022/07/16 05:23:18;;;;;;;;;;;;;;;16.67;94.46;98446.55;1712544;82;20808;-86
2022/07/16 05:25:44;;;;;;;;;;;;;;;16.67;94.32;98454.48;1715639;82;20325;-86
2022/07/16 05:28:14;;;;;;;;;;;;;;;16.68;94.18;98448.22;1718548;82;36090;-86
2022/07/16 05:30:40;;;;;;;;;;;;;;;16.74;94.14;98449.45;1702570;83;26223;-85
2022/07/16 05:33:06;;;;;;;;;;;;;;;16.83;94.06;98451.20;1715949;82;20812;-85
2022/07/16 05:35:32;;;;;;;;;;;;;;;16.88;94.03;98454.24;1715370;82;20243;-85
2022/07/16 05:37:58;;;;;;;;;;;;;;;16.93;94.10;98452.00;1713073;82;20709;-85
2022/07/16 05:40:24;;;;;;;;;;;;;;;17.03;94.16;98451.94;1721871;82;20287;-85
2022/07/16 05:42:50;;;;;;;;;;;;;;;17.09;94.10;98446.06;1717521;81;20824;-85
2022/07/16 05:45:16;;;;;;;;;;;;;;;17.16;93.95;98456.41;1716026;82;20851;-86
2022/07/16 05:47:42;;;;;;;;;;;;;;;17.21;93.80;98446.70;1716213;82;20289;-85
2022/07/16 05:50:14;;;;;;;;;;;;;;;17.27;93.58;98446.94;1717358;82;24546;-85
2022/07/16 05:52:40;;;;;;;;;;;;;;;17.35;93.35;98447.02;1720426;82;21969;-84
2022/07/16 05:55:07;;;;;;;;;;;;;;;17.38;93.10;98444.58;1721598;82;26039;-84
2022/07/16 05:57:35;;;;;;;;;;;;;;;17.44;92.95;98450.59;1721388;82;24527;-84
2022/07/16 06:00:02;;;;;;;;;;;;;;;17.48;92.81;98450.14;1716099;80;20301;-84
2022/07/16 06:02:30;;;;;;;;;;;;;;;17.52;92.74;98455.95;1709497;82;24695;-84
2022/07/16 06:04:58;;;;;;;;;;;;;;;17.54;92.63;98454.84;1714600;82;22097;-84
2022/07/16 06:07:23;;;;;;;;;;;;;;;17.58;92.42;98463.30;1708227;82;26066;-84
2022/07/16 06:09:50;;;;;;;;;;;;;;;17.63;92.22;98462.37;1717366;82;20246;-84
2022/07/16 06:12:16;;;;;;;;;;;;;;;17.67;92.18;98460.29;1708102;82;20300;-84
2022/07/16 06:14:41;;;;;;;;;;;;;;;17.69;92.13;98460.95;1713361;82;20829;-85
2022/07/16 06:17:08;;;;;;;;;;;;;;;17.72;92.02;98458.02;1708219;82;20242;-85
2022/07/16 06:19:34;;;;;;;;;;;;;;;17.75;91.93;98453.23;1710004;82;26261;-85
2022/07/16 06:22:00;;;;;;;;;;;;;;;17.73;91.56;98453.06;1693071;82;24396;-85
2022/07/16 06:24:26;;;;;;;;;;;;;;;17.72;91.38;98455.37;1715466;82;20207;-85
2022/07/16 06:26:52;;;;;;;;;;;;;;;17.65;90.99;98456.95;1710502;82;24651;-85
2022/07/16 06:29:18;;;;;;;;;;;;;;;17.72;91.02;98457.53;1711171;82;20309;-84
2022/07/16 06:31:44;;;;;;;;;;;;;;;17.71;90.63;98458.50;1715126;82;21091;-84
2022/07/16 06:34:11;;;;;;;;;;;;;;;17.72;90.30;98456.69;1717678;82;20273;-84
2022/07/16 06:36:37;;;;;;;;;;;;;;;17.75;90.21;98454.56;1709726;82;20151;-84
2022/07/16 06:39:03;;;;;;;;;;;;;;;17.75;90.06;98453.23;1709369;82;20835;-84
2022/07/16 06:41:29;;;;;;;;;;;;;;;17.82;90.07;98451.66;1708253;82;22037;-84
2022/07/16 06:43:55;;;;;;;;;;;;;;;17.80;89.83;98445.67;1714550;82;26002;-84
2022/07/16 06:46:21;;;;;;;;;;;;;;;17.83;89.69;98446.70;1709000;82;24417;-84
2022/07/16 06:48:47;;;;;;;;;;;;;;;17.90;89.70;98442.45;1709517;82;20792;-84
2022/07/16 06:51:13;;;;;;;;;;;;;;;17.91;89.46;98441.95;1708254;82;24536;-84
2022/07/16 06:53:39;;;;;;;;;;;;;;;17.98;89.40;98443.85;1709405;82;20907;-84
2022/07/16 06:56:08;;;;;;;;;;;;;;;18.12;89.44;98441.62;1714458;82;21074;-84
2022/07/16 06:58:34;;;;;;;;;;;;;;;18.21;89.32;98442.03;1709291;82;24543;-86
2022/07/16 07:01:01;;;;;;;;;;;;;;;18.28;89.12;98443.05;1706440;83;20888;-84
2022/07/16 07:03:28;;;;;;;;;;;;;;;18.39;89.03;98442.80;1718204;82;24627;-84
2022/07/16 07:05:57;;;;;;;;;;;;;;;18.46;88.82;98435.89;1710346;82;22072;-84
2022/07/16 07:08:25;;;;;;;;;;;;;;;18.54;88.64;98435.99;1718470;82;26035;-85
2022/07/16 07:10:51;;;;;;;;;;;;;;;18.62;88.30;98437.34;1721657;82;24421;-85
2022/07/16 07:13:23;;;;;;;;;;;;;;;18.75;88.05;98438.25;1701863;84;20588;-85
2022/07/16 07:15:49;;;;;;;;;;;;;;;18.85;87.73;98440.77;1700824;84;24183;-85
2022/07/16 07:18:14;;;;;;;;;;;;;;;18.99;87.66;98443.64;1702238;83;20210;-85
2022/07/16 07:20:41;;;;;;;;;;;;;;;19.11;87.49;98441.53;1700176;83;26113;-85
2022/07/16 07:23:07;;;;;;;;;;;;;;;19.22;87.19;98434.11;1701518;83;24539;-85
2022/07/16 07:25:33;;;;;;;;;;;;;;;19.33;86.82;98430.33;1714460;82;20238;-85
2022/07/16 07:27:59;;;;;;;;;;;;;;;19.42;86.34;98438.63;1701077;83;24727;-85
2022/07/16 07:30:25;;;;;;;;;;;;;;;19.46;86.12;98437.37;1712295;82;20238;-85
2022/07/16 07:32:51;;;;;;;;;;;;;;;19.52;85.91;98430.08;1711665;82;21117;-85
2022/07/16 07:35:19;;;;;;;;;;;;;;;19.62;85.68;98432.09;1715177;82;20383;-85
2022/07/16 07:37:45;;;;;;;;;;;;;;;19.73;85.54;98438.90;1713349;82;20429;-85
2022/07/16 07:40:13;;;;;;;;;;;;;;;19.90;85.60;98434.43;1711338;82;20366;-85
2022/07/16 07:42:39;;;;;;;;;;;;;;;20.05;85.71;98434.09;1715426;82;22017;-85
2022/07/16 07:45:05;;;;;;;;;;;;;;;20.18;85.23;98430.94;1717289;82;25981;-85
2022/07/16 07:47:31;;;;;;;;;;;;;;;20.19;84.53;98432.56;1701572;83;24637;-85
2022/07/16 07:49:58;;;;;;;;;;;;;;;20.19;83.71;98421.94;1716613;82;20777;-85
2022/07/16 07:52:24;;;;;;;;;;;;;;;20.26;83.33;98434.40;1710512;82;24605;-85
2022/07/16 07:54:50;;;;;;;;;;;;;;;20.31;82.99;98432.56;1701667;83;20837;-85
2022/07/16 07:57:18;;;;;;;;;;;;;;;20.33;82.20;98423.47;1710384;82;26812;-85
2022/07/16 07:59:43;;;;;;;;;;;;;;;20.35;81.27;98433.91;1715360;82;24433;-85
2022/07/16 08:02:09;;;;;;;;;;;;;;;20.34;80.42;98426.46;1703629;82;20445;-85
2022/07/16 08:04:37;;;;;;;;;;;;;;;20.36;79.75;98424.94;1688226;83;20172;-84
2022/07/16 08:07:09;;;;;;;;;;;;;;;20.36;78.90;98428.92;1706449;83;20742;-85
2022/07/16 08:09:31;;;;;;;;;;;;;;;20.39;78.37;98428.11;1698901;83;26516;-85
2022/07/16 08:11:59;;;;;;;;;;;;;;;20.42;78.14;98426.43;1685642;83;20179;-84
2022/07/16 08:14:24;;;;;;;;;;;;;;;20.39;77.67;98430.77;1685454;83;20242;-84
2022/07/16 08:16:50;;;;;;;;;;;;;;;20.36;77.16;98427.59;1699032;83;21045;-85
2022/07/16 08:19:16;;;;;;;;;;;;;;;20.38;76.67;98425.12;1700939;83;20360;-85
2022/07/16 08:21:45;;;;;;;;;;;;;;;20.46;76.35;98414.45;1700479;83;26806;-84
2022/07/16 08:26:56;;;;;;;;;;;;;;;20.59;76.07;98407.78;1705549;83;20230;-85
2022/07/16 08:29:22;;;;;;;;;;;;;;;20.67;75.21;98414.41;1697695;83;25310;-87
2022/07/16 08:31:48;;;;;;;;;;;;;;;20.72;74.37;98412.06;1697569;83;20305;-84
2022/07/16 08:34:14;;;;;;;;;;;;;;;20.81;73.85;98409.70;1698859;83;21069;-84
2022/07/16 08:36:40;;;;;;;;;;;;;;;20.84;72.79;98412.00;1702524;83;24553;-84
2022/07/16 08:39:10;;;;;;;;;;;;;;;20.84;71.77;98414.66;1696162;84;20290;-84
2022/07/16 08:41:35;;;;;;;;;;;;;;;20.88;71.19;98414.66;1696216;83;24577;-84
2022/07/16 08:44:01;;;;;;;;;;;;;;;20.98;70.93;98411.78;1698126;84;21965;-83
2022/07/16 08:46:28;;;;;;;;;;;;;;;21.07;70.68;98403.59;1698246;83;26039;-84
2022/07/16 08:48:55;;;;;;;;;;;;;;;21.20;70.68;98405.22;1703276;83;24738;-84
2022/07/16 08:51:22;;;;;;;;;;;;;;;21.23;70.15;98406.19;1704461;83;21127;-84
2022/07/16 08:53:50;;;;;;;;;;;;;;;21.29;69.32;98405.99;1700733;83;24523;-84
2022/07/16 08:56:17;;;;;;;;;;;;;;;21.37;68.90;98403.30;1706720;83;22052;-84
2022/07/16 08:58:43;;;;;;;;;;;;;;;21.51;68.67;98403.86;1708309;82;26021;-83
2022/07/16 09:01:09;;;;;;;;;;;;;;;21.57;68.03;98405.81;1710468;81;24532;-84
2022/07/16 09:03:38;;;;;;;;;;;;;;;21.63;67.37;98406.94;1735606;82;20357;-84
2022/07/16 09:06:04;;;;;;;;;;;;;;;21.63;66.53;98408.28;1734609;82;24413;-84
2022/07/16 09:08:30;;;;;;;;;;;;;;;21.66;65.82;98410.57;1730259;82;21964;-83
2022/07/16 09:10:58;;;;;;;;;;;;;;;21.77;65.75;98410.16;1732365;82;20977;-84
2022/07/16 09:13:24;;;;;;;;;;;;;;;21.82;65.67;98397.12;1724382;82;24405;-84
2022/07/16 09:15:51;;;;;;;;;;;;;;;21.90;64.91;98401.06;1723493;82;20288;-84
2022/07/16 09:18:21;;;;;;;;;;;;;;;21.99;64.54;98402.67;1735798;82;24514;-84
2022/07/16 09:20:55;;;;;;;;;;;;;;;22.01;64.38;98400.67;1728379;82;22975;-84
2022/07/16 09:23:23;;;;;;;;;;;;;;;22.05;64.03;98395.30;1729121;82;26709;-84
2022/07/16 09:25:51;;;;;;;;;;;;;;;22.14;63.63;98392.57;1732018;80;24506;-84
2022/07/16 09:28:18;;;;;;;;;;;;;;;22.20;63.21;98390.52;1725677;80;20296;-83
2022/07/16 09:30:44;;;;;;;;;;;;;;;22.14;62.58;98393.40;1725518;82;24583;-84
2022/07/16 09:33:12;;;;;;;;;;;;;;;22.14;62.19;98392.07;1736643;82;20332;-83
2022/07/16 09:35:38;;;;;;;;;;;;;;;22.08;62.02;98391.45;1732032;82;26411;-84
2022/07/16 09:38:09;;;;;;;;;;;;;;;22.09;61.78;98391.25;1701297;82;20158;-84
2022/07/16 09:40:38;;;;;;;;;;;;;;;22.07;61.52;98383.96;1730077;82;20273;-84
2022/07/16 09:43:06;;;;;;;;;;;;;;;22.09;61.33;98386.45;1731712;82;24634;-84
2022/07/16 09:45:32;;;;;;;;;;;;;;;22.22;61.16;98383.97;1724553;82;22064;-84
2022/07/16 09:47:58;;;;;;;;;;;;;;;22.36;61.15;98384.52;1734541;80;27778;-84
2022/07/16 09:50:26;;;;;;;;;;;;;;;22.49;61.18;98378.02;1728683;80;24581;-84
2022/07/16 09:52:52;;;;;;;;;;;;;;;22.49;60.87;98382.52;1727636;82;20448;-84
2022/07/16 09:55:18;;;;;;;;;;;;;;;22.40;60.46;98373.80;1734450;80;20425;-84
2022/07/16 09:57:50;;;;;;;;;;;;;;;22.32;60.04;98375.20;1730692;82;20460;-84
2022/07/16 10:00:14;;;;;;;;;;;;;;;22.24;59.73;98373.97;1731045;82;26019;-84
2022/07/16 10:02:41;;;;;;;;;;;;;;;22.26;59.63;98381.26;1704341;82;24387;-84
2022/07/16 10:05:07;;;;;;;;;;;;;;;22.26;59.46;98381.26;1696552;83;20215;-84
2022/07/16 10:07:33;;;;;;;;;;;;;;;22.28;59.39;98371.75;1696271;83;24607;-84
2022/07/16 10:10:00;;;;;;;;;;;;;;;22.23;59.08;98375.47;1695925;83;21967;-84
2022/07/16 10:12:26;;;;;;;;;;;;;;;22.31;58.87;98375.41;1697080;83;26250;-84
2022/07/16 10:14:58;;;;;;;;;;;;;;;22.30;58.66;98373.24;1697221;83;24643;-84
2022/07/16 10:17:23;;;;;;;;;;;;;;;22.35;58.67;98364.69;1698064;83;20248;-84
2022/07/16 10:20:00;;;;;;;;;;;;;;;22.39;58.43;98369.47;1694771;83;24759;-84
2022/07/16 10:22:28;;;;;;;;;;;;;;;22.41;58.42;98367.96;1698732;83;22789;-84
2022/07/16 10:24:55;;;;;;;;;;;;;;;22.39;58.35;98371.30;1696634;83;26220;-84
2022/07/16 10:27:29;;;;;;;;;;;;;;;22.33;58.29;98370.70;1698125;83;25130;-84
2022/07/16 10:30:09;;;;;;;;;;;;;;;22.27;57.95;98361.59;1695289;83;20481;-84
2022/07/16 10:32:53;;;;;;;;;;;;;;;22.30;57.92;98363.91;1697636;83;24616;-83
2022/07/16 10:35:30;;;;;;;;;;;;;;;22.38;57.94;98361.64;1696064;83;22187;-83
2022/07/16 10:38:10;;;;;;;;;;;;;;;22.45;57.88;98352.73;1696412;83;26153;-83
2022/07/16 10:40:37;;;;;;;;;;;;;;;22.59;58.20;98355.56;1693194;83;25305;-83
2022/07/16 10:43:14;;;;;;;;;;;;;;;22.62;58.01;98353.88;1695680;83;20220;-84
2022/07/16 10:45:54;;;;;;;;;;;;;;;22.64;57.66;98350.00;1695231;84;25385;-84
2022/07/16 10:48:24;;;;;;;;;;;;;;;22.66;57.33;98347.98;1697336;84;22978;-84
2022/07/16 10:51:08;;;;;;;;;;;;;;;22.66;57.19;98341.31;1694556;83;26050;-84
2022/07/16 10:53:53;;;;;;;;;;;;;;;22.60;57.10;98338.05;1696503;83;24323;-84
2022/07/16 10:56:37;;;;;;;;;;;;;;;22.56;56.97;98343.44;1697530;83;20245;-83
2022/07/16 10:59:04;;;;;;;;;;;;;;;22.53;56.78;98338.45;1697629;83;25420;-84
2022/07/16 11:01:30;;;;;;;;;;;;;;;22.58;56.61;98331.26;1701514;82;22705;-84
2022/07/16 11:03:58;;;;;;;;;;;;;;;22.61;56.47;98337.55;1704073;82;25686;-84
2022/07/16 11:06:24;;;;;;;;;;;;;;;22.65;56.24;98334.81;1711900;82;24631;-85
2022/07/16 11:08:55;;;;;;;;;;;;;;;22.61;55.65;98329.03;1711424;82;20847;-85
2022/07/16 11:11:21;;;;;;;;;;;;;;;22.49;55.16;98336.67;1707130;82;24701;-84
2022/07/16 11:13:49;;;;;;;;;;;;;;;22.45;55.22;98330.06;1708796;82;20867;-85
2022/07/16 11:16:15;;;;;;;;;;;;;;;22.43;55.30;98327.25;1708613;83;26060;-85
2022/07/16 11:18:41;;;;;;;;;;;;;;;22.46;55.39;98328.23;1709460;82;20277;-85
2022/07/16 11:21:08;;;;;;;;;;;;;;;22.50;55.35;98319.66;1708117;82;20317;-85
2022/07/16 11:23:54;;;;;;;;;;;;;;;22.61;55.46;98326.88;1706393;82;24796;-85
2022/07/16 11:26:21;;;;;;;;;;;;;;;22.72;55.62;98328.59;1709472;83;22646;-83
2022/07/16 11:28:52;;;;;;;;;;;;;;;22.82;55.38;98330.45;1708667;83;26049;-84
2022/07/16 11:31:31;;;;;;;;;;;;;;;22.86;55.11;98329.06;1708228;82;23776;-83
2022/07/16 11:33:58;;;;;;;;;;;;;;;22.85;54.79;98322.09;1708545;83;21123;-83
2022/07/16 11:36:28;;;;;;;;;;;;;;;22.82;54.41;98326.45;1708649;82;24591;-83
2022/07/16 11:38:57;;;;;;;;;;;;;;;22.87;54.39;98324.05;1709103;83;20310;-84
2022/07/16 11:41:23;;;;;;;;;;;;;;;22.88;54.22;98323.04;1707485;82;25993;-84
2022/07/16 11:43:50;;;;;;;;;;;;;;;22.81;53.71;98321.30;1708344;82;20167;-84
2022/07/16 11:46:27;;;;;;;;;;;;;;;22.92;53.70;98324.81;1709358;82;20941;-84
2022/07/16 11:48:53;;;;;;;;;;;;;;;23.10;54.02;98321.73;1709309;83;25381;-84
2022/07/16 11:51:19;;;;;;;;;;;;;;;23.31;54.45;98323.91;1711521;82;21952;-84
2022/07/16 11:53:55;;;;;;;;;;;;;;;23.40;54.37;98321.13;1691450;83;25993;-84
2022/07/16 11:56:38;;;;;;;;;;;;;;;23.36;53.97;98320.66;1714429;82;25189;-85
2022/07/16 11:59:05;;;;;;;;;;;;;;;23.38;53.60;98311.97;1714843;82;20481;-84
2022/07/16 12:01:32;;;;;;;;;;;;;;;23.52;53.43;98317.77;1710107;82;24536;-84
2022/07/16 12:03:59;;;;;;;;;;;;;;;23.46;52.69;98326.55;1698481;83;22001;-85
2022/07/16 12:06:27;;;;;;;;;;;;;;;23.33;52.12;98327.73;1698178;84;26309;-85
2022/07/16 12:08:54;;;;;;;;;;;;;;;23.26;51.67;98321.50;1702095;83;24447;-85
2022/07/16 12:11:20;;;;;;;;;;;;;;;23.17;51.29;98318.13;1701906;83;20485;-85
2022/07/16 12:13:54;;;;;;;;;;;;;;;23.21;51.28;98326.58;1708563;82;23995;-85
2022/07/16 12:16:20;;;;;;;;;;;;;;;23.23;51.08;98325.89;1696982;83;22817;-85
2022/07/16 12:18:59;;;;;;;;;;;;;;;23.23;50.94;98324.56;1701933;83;26067;-85
2022/07/16 12:21:26;;;;;;;;;;;;;;;23.21;50.70;98323.91;1702888;83;24531;-85
2022/07/16 12:23:52;;;;;;;;;;;;;;;23.30;50.94;98320.09;1698883;83;20188;-85
2022/07/16 12:26:20;;;;;;;;;;;;;;;23.46;51.16;98315.86;1696761;83;24533;-86
2022/07/16 12:28:52;;;;;;;;;;;;;;;23.53;51.04;98323.43;1696951;83;22708;-85
2022/07/16 12:31:19;;;;;;;;;;;;;;;23.45;50.88;98318.20;1704405;83;26037;-85
2022/07/16 12:33:50;;;;;;;;;;;;;;;23.27;50.23;98313.30;1701231;83;24499;-86
2022/07/16 12:36:18;;;;;;;;;;;;;;;23.15;50.03;98322.00;1701911;83;20616;-86
2022/07/16 12:38:53;;;;;;;;;;;;;;;23.10;49.96;98315.89;1697283;84;24623;-86